Time;durP1;ratioP1;P1;durP2;ratioP2;P2;SDS_P1;SDS_P2;PMS_P1;PMS_P2;Temp;Humidity;BMP_temperature;BMP_pressure;BME280_temperature;BME280_humidity;BME280_pressure;Samples;Min_cycle;Max_cycle;Signal;HPM_P1;HPM_P2
2021/08/24 00:00:29;;;;;;;2.63;1.30;;;17.30;93.90;;;;;;5050399;28;20032;-79
2021/08/24 00:02:57;;;;;;;2.30;1.08;;;17.30;93.90;;;;;;5051088;28;20028;-79
2021/08/24 00:05:37;;;;;;;3.35;1.35;;;17.30;93.90;;;;;;5050462;28;20063;-80
2021/08/24 00:08:05;;;;;;;2.20;1.20;;;17.30;94.00;;;;;;5051135;28;20044;-79
2021/08/24 00:10:33;;;;;;;3.47;1.40;;;17.30;93.90;;;;;;5050744;28;20021;-80
2021/08/24 00:13:00;;;;;;;2.45;1.33;;;17.20;93.90;;;;;;5050917;28;20060;-79
2021/08/24 00:15:26;;;;;;;3.45;1.30;;;17.20;93.90;;;;;;5050324;28;20085;-80
2021/08/24 00:17:52;;;;;;;3.17;1.40;;;17.20;93.90;;;;;;5050777;28;20465;-80
2021/08/24 00:20:19;;;;;;;4.03;1.30;;;17.20;93.90;;;;;;5050382;28;20108;-80
2021/08/24 00:22:45;;;;;;;2.22;1.10;;;17.20;93.90;;;;;;5050847;28;20021;-78
2021/08/24 00:25:12;;;;;;;3.17;1.58;;;17.20;93.90;;;;;;5051507;28;20368;-80
2021/08/24 00:27:38;;;;;;;2.58;1.23;;;17.10;94.00;;;;;;5050722;28;20025;-79
2021/08/24 00:30:06;;;;;;;4.47;1.60;;;17.20;94.00;;;;;;5052018;28;20016;-80
2021/08/24 00:32:32;;;;;;;3.20;1.38;;;17.10;93.90;;;;;;5051020;28;20464;-80
2021/08/24 00:34:57;;;;;;;1.85;1.23;;;17.10;94.20;;;;;;5050664;28;20128;-79
2021/08/24 00:37:24;;;;;;;2.38;1.15;;;17.10;94.20;;;;;;5051712;28;20511;-80
2021/08/24 00:39:50;;;;;;;2.28;1.40;;;17.10;93.90;;;;;;5050644;28;20021;-80
2021/08/24 00:42:17;;;;;;;3.38;1.30;;;17.10;93.90;;;;;;5050069;28;20380;-80
2021/08/24 00:44:45;;;;;;;3.83;1.50;;;17.10;93.90;;;;;;5050498;28;20481;-80
2021/08/24 00:47:14;;;;;;;3.72;1.50;;;17.00;93.80;;;;;;5050321;28;20033;-82
2021/08/24 00:49:40;;;;;;;4.25;1.75;;;17.10;93.90;;;;;;5052210;28;20022;-79
2021/08/24 00:52:11;;;;;;;2.05;1.35;;;17.00;93.90;;;;;;5055589;28;20096;-79
2021/08/24 00:54:39;;;;;;;2.22;1.35;;;17.00;93.80;;;;;;5050489;28;20029;-80
2021/08/24 00:57:15;;;;;;;2.10;1.42;;;17.00;93.90;;;;;;5050429;28;20029;-81
2021/08/24 00:59:41;;;;;;;3.38;1.73;;;17.00;93.80;;;;;;5050732;28;20025;-79
2021/08/24 01:02:17;;;;;;;2.63;1.50;;;17.00;93.80;;;;;;5051413;28;20036;-79
2021/08/24 01:04:45;;;;;;;3.05;1.42;;;17.00;93.80;;;;;;5050421;28;20356;-79
2021/08/24 01:07:39;;;;;;;2.72;1.30;;;17.00;93.80;;;;;;5050410;28;20083;-80
2021/08/24 01:10:14;;;;;;;4.05;1.63;;;16.90;93.80;;;;;;5032975;28;20087;-79
2021/08/24 01:13:02;;;;;;;3.47;1.70;;;16.90;93.80;;;;;;5051232;28;20036;-79
2021/08/24 01:15:50;;;;;;;3.13;1.50;;;16.90;93.80;;;;;;5049632;28;20075;-80
2021/08/24 01:18:32;;;;;;;3.33;1.58;;;16.90;93.70;;;;;;5049742;28;20029;-80
2021/08/24 01:21:52;;;;;;;2.85;1.42;;;16.90;93.70;;;;;;5051715;28;20029;-80
2021/08/24 01:24:28;;;;;;;2.53;1.50;;;16.90;93.80;;;;;;4976787;28;20069;-81
2021/08/24 01:27:10;;;;;;;3.42;1.55;;;16.90;93.80;;;;;;4993643;28;20026;-81
2021/08/24 01:30:03;;;;;;;3.35;1.60;;;16.90;93.80;;;;;;4976687;28;20042;-80
2021/08/24 01:32:50;;;;;;;4.85;1.52;;;16.90;93.80;;;;;;4993053;28;20096;-81
2021/08/24 01:35:46;;;;;;;4.00;1.77;;;16.80;93.90;;;;;;4976194;28;20566;-81
2021/08/24 01:38:27;;;;;;;4.90;1.88;;;16.80;93.90;;;;;;4977243;28;20078;-79
2021/08/24 01:41:07;;;;;;;6.50;1.73;;;16.80;93.90;;;;;;4977038;28;20031;-80
2021/08/24 01:43:54;;;;;;;3.53;1.83;;;16.80;94.00;;;;;;4992800;28;20044;-81
2021/08/24 01:46:39;;;;;;;2.22;1.25;;;16.70;94.00;;;;;;4992816;28;20030;-81
2021/08/24 01:49:06;;;;;;;3.40;1.90;;;16.80;94.00;;;;;;4976950;28;20038;-81
2021/08/24 01:51:56;;;;;;;3.55;2.03;;;16.70;94.10;;;;;;4976357;28;20027;-81
2021/08/24 01:54:27;;;;;;;4.05;1.60;;;16.70;94.20;;;;;;4991579;28;20419;-81
2021/08/24 01:56:54;;;;;;;3.65;1.42;;;16.70;94.20;;;;;;5053556;28;20021;-80
2021/08/24 01:59:40;;;;;;;4.28;1.60;;;16.70;94.20;;;;;;5052905;28;20024;-81
2021/08/24 02:02:10;;;;;;;2.85;1.60;;;16.70;94.30;;;;;;5053430;28;20461;-80
2021/08/24 02:04:43;;;;;;;3.45;2.00;;;16.60;94.30;;;;;;5052832;28;20333;-81
2021/08/24 02:07:10;;;;;;;3.83;2.00;;;16.70;94.40;;;;;;5053392;28;20017;-80
2021/08/24 02:09:47;;;;;;;4.03;1.58;;;16.70;94.40;;;;;;5052645;28;20131;-80
2021/08/24 02:12:16;;;;;;;4.57;2.15;;;16.70;94.30;;;;;;5053304;28;20028;-80
2021/08/24 02:14:43;;;;;;;3.20;1.48;;;16.60;94.30;;;;;;5052784;28;20033;-79
2021/08/24 02:17:12;;;;;;;3.70;1.80;;;16.60;94.30;;;;;;5053424;28;20029;-80
2021/08/24 02:19:44;;;;;;;4.90;2.05;;;16.60;94.30;;;;;;5052430;28;20029;-80
2021/08/24 02:22:30;;;;;;;6.47;2.17;;;16.60;94.40;;;;;;5053052;28;20025;-80
2021/08/24 02:25:11;;;;;;;4.70;1.85;;;16.60;94.40;;;;;;5052888;28;20464;-79
2021/08/24 02:27:43;;;;;;;4.07;1.80;;;16.60;94.40;;;;;;5053643;28;20037;-80
2021/08/24 02:30:09;;;;;;;5.25;1.73;;;16.50;94.40;;;;;;5052731;28;20067;-80
2021/08/24 02:32:39;;;;;;;3.88;2.22;;;16.50;94.40;;;;;;5051264;28;20017;-80
2021/08/24 02:35:11;;;;;;;6.13;2.00;;;16.50;94.40;;;;;;5052673;28;20045;-80
2021/08/24 02:38:10;;;;;;;3.40;1.60;;;16.50;94.40;;;;;;5052221;28;20067;-80
2021/08/24 02:40:45;;;;;;;4.00;2.03;;;16.50;94.40;;;;;;5052197;28;20016;-80
2021/08/24 02:43:19;;;;;;;5.63;2.05;;;16.50;94.40;;;;;;5052780;28;20429;-80
2021/08/24 02:45:52;;;;;;;5.45;1.75;;;16.50;94.50;;;;;;5052694;28;20045;-80
2021/08/24 02:48:19;;;;;;;3.70;1.70;;;16.50;94.40;;;;;;5054166;28;20021;-79
2021/08/24 02:50:46;;;;;;;3.65;1.90;;;16.50;94.50;;;;;;5052455;28;20389;-80
2021/08/24 02:53:14;;;;;;;3.40;1.45;;;16.50;94.60;;;;;;5052538;28;20081;-80
2021/08/24 02:55:39;;;;;;;3.90;1.92;;;16.50;94.60;;;;;;5051703;28;20239;-80
2021/08/24 02:58:05;;;;;;;4.60;1.90;;;16.40;94.60;;;;;;5052415;28;20380;-80
2021/08/24 03:00:31;;;;;;;4.57;1.90;;;16.40;94.60;;;;;;5051372;28;20021;-80
2021/08/24 03:02:57;;;;;;;5.68;2.35;;;16.40;94.60;;;;;;5052237;28;20091;-80
2021/08/24 03:05:22;;;;;;;5.55;2.08;;;16.40;94.70;;;;;;5051579;28;20095;-80
2021/08/24 03:07:48;;;;;;;6.75;1.90;;;16.40;94.70;;;;;;5052275;28;20021;-79
2021/08/24 03:10:19;;;;;;;5.40;2.30;;;16.40;94.70;;;;;;5042354;28;20052;-79
2021/08/24 03:12:56;;;;;;;5.33;2.20;;;16.40;94.80;;;;;;5035196;28;20021;-79
2021/08/24 03:15:25;;;;;;;4.70;2.10;;;16.40;94.80;;;;;;5032032;28;20119;-80
2021/08/24 03:17:59;;;;;;;5.95;2.78;;;16.40;94.90;;;;;;5033434;28;20021;-79
2021/08/24 03:20:29;;;;;;;5.22;2.53;;;16.40;94.90;;;;;;5031493;28;20183;-80
2021/08/24 03:22:56;;;;;;;4.00;2.15;;;16.40;94.90;;;;;;5032214;28;20018;-80
2021/08/24 03:25:23;;;;;;;4.20;2.17;;;16.30;94.90;;;;;;5033650;28;20417;-80
2021/08/24 03:27:51;;;;;;;5.38;2.17;;;16.30;95.00;;;;;;5032962;28;20036;-80
2021/08/24 03:30:18;;;;;;;6.38;2.45;;;16.30;95.00;;;;;;5033405;28;20021;-79
2021/08/24 03:32:45;;;;;;;4.15;2.30;;;16.30;95.00;;;;;;5030789;28;20060;-76
2021/08/24 03:35:13;;;;;;;5.15;2.35;;;16.30;95.00;;;;;;5031540;28;20389;-79
2021/08/24 03:37:39;;;;;;;5.18;2.70;;;16.30;95.00;;;;;;5032491;28;20026;-84
2021/08/24 03:40:07;;;;;;;4.15;1.98;;;16.30;95.00;;;;;;5031693;28;20071;-78
2021/08/24 03:42:34;;;;;;;5.75;2.40;;;16.30;95.10;;;;;;5032767;28;20025;-81
2021/08/24 03:45:00;;;;;;;4.88;2.45;;;16.30;95.10;;;;;;5031622;28;20080;-84
2021/08/24 03:47:26;;;;;;;4.60;2.38;;;16.30;95.10;;;;;;5032473;28;20028;-82
2021/08/24 03:49:52;;;;;;;5.38;2.35;;;16.20;95.10;;;;;;5031669;28;20033;-81
2021/08/24 03:52:17;;;;;;;5.18;2.30;;;16.20;95.10;;;;;;5031404;28;20030;-81
2021/08/24 03:54:43;;;;;;;6.32;2.53;;;16.20;95.10;;;;;;5030688;28;20536;-81
2021/08/24 03:57:09;;;;;;;6.40;2.63;;;16.20;95.10;;;;;;5030978;28;20037;-81
2021/08/24 03:59:34;;;;;;;6.38;2.55;;;16.20;95.20;;;;;;5030586;28;20029;-81
2021/08/24 04:02:01;;;;;;;5.88;2.30;;;16.20;95.20;;;;;;5032588;28;20032;-81
2021/08/24 04:04:27;;;;;;;4.00;1.98;;;16.20;95.20;;;;;;5031982;28;20390;-82
2021/08/24 04:06:53;;;;;;;3.53;2.03;;;16.30;95.20;;;;;;5030932;28;20028;-81
2021/08/24 04:09:18;;;;;;;6.72;2.75;;;16.20;95.20;;;;;;5032484;28;20032;-81
2021/08/24 04:11:44;;;;;;;5.65;2.42;;;16.20;95.20;;;;;;5031997;28;20029;-81
2021/08/24 04:14:10;;;;;;;9.68;4.35;;;16.20;95.20;;;;;;5031051;28;20091;-82
2021/08/24 04:16:36;;;;;;;6.32;3.42;;;16.30;95.30;;;;;;5029495;28;20064;-78
2021/08/24 04:19:01;;;;;;;4.03;2.72;;;16.20;95.30;;;;;;5030622;28;20460;-78
2021/08/24 04:21:27;;;;;;;4.60;2.63;;;16.20;95.30;;;;;;5028768;28;20492;-78
2021/08/24 04:23:53;;;;;;;5.53;2.80;;;16.20;95.30;;;;;;5028845;28;20037;-80
2021/08/24 04:26:18;;;;;;;6.20;2.50;;;16.20;95.30;;;;;;5031001;28;20025;-78
2021/08/24 04:28:44;;;;;;;7.32;3.13;;;16.20;95.40;;;;;;5028486;28;20120;-78
2021/08/24 04:31:15;;;;;;;5.10;2.35;;;16.20;95.40;;;;;;5029259;28;20029;-77
2021/08/24 04:33:40;;;;;;;6.90;2.87;;;16.20;95.40;;;;;;5029832;28;20060;-76
2021/08/24 04:36:06;;;;;;;6.50;2.95;;;16.20;95.40;;;;;;5030311;28;20108;-76
2021/08/24 04:38:35;;;;;;;5.82;2.65;;;16.20;95.70;;;;;;5029974;28;20026;-76
2021/08/24 04:41:02;;;;;;;4.18;2.28;;;16.10;95.50;;;;;;5029969;28;20018;-76
2021/08/24 04:43:28;;;;;;;5.25;2.67;;;16.10;95.50;;;;;;5029300;28;20025;-78
2021/08/24 04:45:54;;;;;;;4.75;2.75;;;16.10;95.50;;;;;;5028905;28;20531;-82
2021/08/24 04:48:19;;;;;;;5.55;3.08;;;16.10;95.50;;;;;;5034500;28;20026;-77
2021/08/24 04:50:45;;;;;;;5.47;3.15;;;16.10;95.50;;;;;;5038058;28;20057;-79
2021/08/24 04:53:12;;;;;;;8.13;3.22;;;16.00;95.50;;;;;;5034168;28;20069;-79
2021/08/24 04:55:39;;;;;;;6.90;2.97;;;16.00;95.50;;;;;;5039379;28;20112;-79
2021/08/24 04:58:04;;;;;;;7.78;2.95;;;16.10;95.60;;;;;;5042067;28;20029;-80
2021/08/24 05:00:31;;;;;;;5.97;3.10;;;16.00;95.50;;;;;;5042393;28;20082;-80
2021/08/24 05:02:57;;;;;;;7.10;2.97;;;16.00;95.60;;;;;;5041602;28;20026;-79
2021/08/24 05:05:23;;;;;;;4.40;2.42;;;16.00;95.60;;;;;;5046161;28;20394;-80
2021/08/24 05:07:49;;;;;;;5.60;2.70;;;16.00;95.60;;;;;;5043895;28;20386;-80
2021/08/24 05:10:14;;;;;;;7.28;3.22;;;16.00;95.60;;;;;;5051061;28;20014;-79
2021/08/24 05:12:40;;;;;;;5.85;2.70;;;16.00;95.60;;;;;;5033323;28;20033;-80
2021/08/24 05:15:07;;;;;;;6.90;3.15;;;16.00;95.70;;;;;;5034197;28;20025;-80
2021/08/24 05:17:33;;;;;;;5.30;3.30;;;16.00;95.60;;;;;;5033509;28;20032;-81
2021/08/24 05:19:59;;;;;;;7.00;2.80;;;16.00;95.60;;;;;;5034451;28;20499;-80
2021/08/24 05:22:25;;;;;;;5.30;2.90;;;16.00;95.60;;;;;;5035822;28;20021;-79
2021/08/24 05:24:50;;;;;;;5.28;2.50;;;16.00;95.60;;;;;;5033822;28;20031;-79
2021/08/24 05:27:16;;;;;;;5.45;3.15;;;16.00;95.60;;;;;;5035535;28;20022;-79
2021/08/24 05:29:42;;;;;;;5.50;2.92;;;16.00;95.60;;;;;;5033734;28;20038;-79
2021/08/24 05:32:07;;;;;;;7.90;3.08;;;16.00;95.60;;;;;;5034172;28;20023;-79
2021/08/24 05:34:33;;;;;;;7.18;3.50;;;16.10;95.60;;;;;;5033194;28;20073;-79
2021/08/24 05:36:59;;;;;;;7.10;3.30;;;16.00;95.60;;;;;;5034994;28;20029;-79
2021/08/24 05:39:25;;;;;;;4.85;2.85;;;16.10;95.70;;;;;;5051098;28;20022;-79
2021/08/24 05:41:51;;;;;;;7.82;3.53;;;16.10;95.70;;;;;;5034332;28;20017;-79
2021/08/24 05:44:17;;;;;;;4.95;2.40;;;16.10;95.90;;;;;;5034172;28;20028;-79
2021/08/24 05:46:43;;;;;;;4.68;2.58;;;16.10;95.60;;;;;;5033356;28;20028;-80
2021/08/24 05:49:09;;;;;;;5.95;2.83;;;16.20;95.60;;;;;;5050391;28;20022;-79
2021/08/24 05:51:37;;;;;;;6.35;3.10;;;16.10;95.60;;;;;;5033356;28;20108;-80
2021/08/24 05:54:03;;;;;;;6.60;2.95;;;16.20;95.70;;;;;;5033735;28;20018;-80
2021/08/24 05:56:29;;;;;;;5.13;2.15;;;16.20;95.70;;;;;;5033816;28;20117;-79
2021/08/24 05:58:55;;;;;;;5.55;3.22;;;16.20;95.70;;;;;;5032878;28;20108;-80
2021/08/24 06:01:24;;;;;;;4.80;2.63;;;16.20;95.70;;;;;;5033603;28;20018;-80
2021/08/24 06:03:50;;;;;;;3.95;2.20;;;16.20;95.70;;;;;;5034085;28;20354;-81
2021/08/24 06:06:20;;;;;;;6.30;2.67;;;16.30;95.70;;;;;;5033539;28;20013;-79
2021/08/24 06:08:46;;;;;;;6.40;3.05;;;16.30;95.70;;;;;;5031899;28;20022;-79
2021/08/24 06:11:17;;;;;;;6.78;2.90;;;16.40;95.70;;;;;;5033742;28;20382;-80
2021/08/24 06:13:43;;;;;;;5.47;2.90;;;16.40;95.70;;;;;;5032516;28;20025;-79
2021/08/24 06:16:08;;;;;;;7.32;3.40;;;16.40;95.70;;;;;;5033086;28;20120;-79
2021/08/24 06:18:36;;;;;;;6.18;2.60;;;16.40;95.70;;;;;;5032910;28;20018;-83
2021/08/24 06:21:02;;;;;;;6.57;3.25;;;16.40;95.70;;;;;;5033330;28;20485;-81
2021/08/24 06:23:28;;;;;;;6.75;3.17;;;16.40;95.70;;;;;;5033361;28;20032;-80
2021/08/24 06:25:53;;;;;;;6.68;3.03;;;16.50;95.80;;;;;;5032662;28;20022;-80
2021/08/24 06:28:19;;;;;;;5.70;2.70;;;16.50;95.80;;;;;;5033371;28;20063;-79
2021/08/24 06:30:44;;;;;;;5.03;2.55;;;16.50;95.80;;;;;;5032685;28;20022;-80
2021/08/24 06:33:10;;;;;;;4.32;2.53;;;16.60;95.80;;;;;;5034330;28;20026;-79
2021/08/24 06:35:36;;;;;;;7.82;2.80;;;16.60;95.80;;;;;;5032176;28;20480;-81
2021/08/24 06:38:02;;;;;;;6.30;2.83;;;16.60;95.80;;;;;;5032986;28;20017;-79
2021/08/24 06:40:28;;;;;;;9.85;3.45;;;16.60;95.80;;;;;;5034354;28;20025;-79
2021/08/24 06:42:54;;;;;;;4.85;3.13;;;16.60;95.80;;;;;;5032610;28;20024;-79
2021/08/24 06:45:27;;;;;;;6.13;2.92;;;16.70;95.80;;;;;;5049598;28;20009;-80
2021/08/24 06:47:53;;;;;;;7.75;3.38;;;16.70;95.80;;;;;;5032315;28;20342;-80
2021/08/24 06:50:20;;;;;;;5.65;3.15;;;16.70;95.80;;;;;;5034272;28;20464;-80
2021/08/24 06:52:46;;;;;;;7.18;3.30;;;16.70;95.80;;;;;;5033388;28;20033;-80
2021/08/24 06:55:12;;;;;;;7.80;3.50;;;16.70;95.80;;;;;;5032810;28;20022;-81
2021/08/24 06:57:39;;;;;;;9.63;3.60;;;16.80;95.90;;;;;;5032096;28;20022;-81
2021/08/24 07:00:11;;;;;;;6.43;3.22;;;16.80;95.90;;;;;;5032275;28;20119;-79
2021/08/24 07:02:40;;;;;;;6.05;3.72;;;16.80;95.90;;;;;;5031854;28;20026;-84
2021/08/24 07:05:06;;;;;;;6.50;3.83;;;16.80;95.90;;;;;;5032501;28;20025;-80
2021/08/24 07:07:32;;;;;;;8.48;3.15;;;16.90;95.90;;;;;;5032316;28;20018;-80
2021/08/24 07:09:58;;;;;;;5.63;2.88;;;16.90;95.90;;;;;;5031752;28;20021;-80
2021/08/24 07:12:24;;;;;;;7.47;3.92;;;16.90;95.90;;;;;;5048830;28;20035;-80
2021/08/24 07:14:49;;;;;;;6.55;3.75;;;17.00;95.90;;;;;;5031751;28;20414;-79
2021/08/24 07:17:16;;;;;;;7.32;3.70;;;17.00;95.90;;;;;;5032264;28;20022;-80
2021/08/24 07:19:42;;;;;;;8.20;4.10;;;17.00;96.10;;;;;;5031224;28;20527;-80
2021/08/24 07:22:07;;;;;;;7.78;4.30;;;17.00;96.10;;;;;;5032346;28;20021;-80
2021/08/24 07:24:33;;;;;;;7.38;3.60;;;17.10;95.90;;;;;;5033442;28;20415;-80
2021/08/24 07:26:59;;;;;;;6.45;3.88;;;17.10;95.80;;;;;;5048082;28;20030;-79
2021/08/24 07:29:24;;;;;;;7.78;4.13;;;17.20;95.80;;;;;;5033218;28;20407;-79
2021/08/24 07:31:50;;;;;;;7.80;3.78;;;17.20;95.80;;;;;;5031499;28;20365;-81
2021/08/24 07:34:16;;;;;;;8.32;4.20;;;17.20;95.80;;;;;;5031465;28;20095;-81
2021/08/24 07:36:42;;;;;;;8.85;4.25;;;17.20;95.80;;;;;;5031312;28;20388;-80
2021/08/24 07:39:08;;;;;;;7.40;4.55;;;17.20;95.80;;;;;;5033298;28;20388;-80
2021/08/24 07:41:34;;;;;;;8.85;3.85;;;17.30;95.80;;;;;;5031701;28;20029;-80
2021/08/24 07:44:00;;;;;;;7.43;4.20;;;17.30;95.70;;;;;;5032375;28;20369;-80
2021/08/24 07:46:25;;;;;;;6.93;3.90;;;17.40;95.70;;;;;;5048073;28;20114;-80
2021/08/24 07:48:51;;;;;;;7.72;4.20;;;17.40;95.60;;;;;;5031091;28;20028;-80
2021/08/24 07:51:20;;;;;;;5.82;3.22;;;17.40;95.60;;;;;;5048397;28;20017;-80
2021/08/24 07:53:47;;;;;;;8.00;3.58;;;17.40;95.60;;;;;;5031085;28;20083;-81
2021/08/24 07:56:12;;;;;;;6.10;3.75;;;17.50;95.60;;;;;;5031563;28;20029;-79
2021/08/24 07:58:38;;;;;;;8.80;4.28;;;17.50;95.60;;;;;;5032867;28;20020;-79
2021/08/24 08:01:04;;;;;;;6.57;3.75;;;17.50;95.50;;;;;;5052321;28;20076;-80
2021/08/24 08:03:29;;;;;;;5.68;3.03;;;17.60;95.50;;;;;;5033692;28;20017;-79
2021/08/24 08:05:55;;;;;;;5.22;2.90;;;17.60;95.40;;;;;;5037907;28;20063;-80
2021/08/24 08:08:20;;;;;;;6.97;3.70;;;17.60;95.40;;;;;;5032541;28;20075;-80
2021/08/24 08:10:46;;;;;;;7.68;3.88;;;17.70;95.40;;;;;;5030842;28;20441;-81
2021/08/24 08:13:12;;;;;;;5.80;3.85;;;17.70;95.40;;;;;;5031192;28;20025;-79
2021/08/24 08:15:38;;;;;;;7.95;3.28;;;17.80;95.30;;;;;;5031330;28;20033;-80
2021/08/24 08:18:06;;;;;;;5.55;3.25;;;17.80;95.20;;;;;;5030778;28;20068;-80
2021/08/24 08:20:33;;;;;;;5.22;3.33;;;17.90;95.20;;;;;;5031334;28;20059;-81
2021/08/24 08:23:00;;;;;;;4.75;3.20;;;17.90;95.20;;;;;;5030460;28;20013;-80
2021/08/24 08:25:26;;;;;;;4.97;3.20;;;17.90;95.10;;;;;;5031223;28;20025;-80
2021/08/24 08:27:52;;;;;;;5.80;2.90;;;18.00;95.00;;;;;;5047155;28;20024;-80
2021/08/24 08:30:18;;;;;;;6.80;2.83;;;18.00;94.90;;;;;;5030231;28;20102;-80
2021/08/24 08:32:43;;;;;;;4.47;2.78;;;18.10;94.80;;;;;;5030492;28;20124;-85
2021/08/24 08:35:11;;;;;;;4.70;2.25;;;18.20;94.70;;;;;;5032217;28;20374;-81
2021/08/24 08:37:37;;;;;;;5.93;2.40;;;18.20;94.70;;;;;;5030840;28;20095;-80
2021/08/24 08:40:08;;;;;;;5.10;2.60;;;18.20;94.70;;;;;;5030189;28;20503;-80
2021/08/24 08:42:48;;;;;;;4.88;2.20;;;18.20;94.60;;;;;;5030776;28;20022;-80
2021/08/24 08:45:39;;;;;;;4.82;2.25;;;18.30;94.60;;;;;;5031754;28;20108;-80
2021/08/24 08:48:19;;;;;;;4.70;2.20;;;18.30;94.60;;;;;;5031820;28;20342;-81
2021/08/24 08:51:15;;;;;;;5.80;3.08;;;18.30;94.40;;;;;;5033118;28;20052;-86
2021/08/24 08:54:03;;;;;;;4.70;2.92;;;18.40;94.40;;;;;;5030383;28;20044;-79
2021/08/24 08:56:36;;;;;;;5.32;2.25;;;18.50;94.20;;;;;;5033804;28;20029;-81
2021/08/24 08:59:16;;;;;;;5.38;2.88;;;18.50;94.10;;;;;;5030364;28;20026;-81
2021/08/24 09:02:03;;;;;;;5.88;2.65;;;18.60;94.10;;;;;;5030764;28;20010;-81
2021/08/24 09:04:42;;;;;;;4.32;2.28;;;18.60;94.00;;;;;;5030583;28;20457;-81
2021/08/24 09:07:36;;;;;;;5.55;2.88;;;18.70;93.90;;;;;;5030346;28;20080;-81
2021/08/24 09:10:04;;;;;;;6.03;2.90;;;18.70;93.80;;;;;;5029769;28;20112;-80
2021/08/24 09:12:31;;;;;;;4.50;2.50;;;18.70;93.90;;;;;;5030757;28;20018;-80
2021/08/24 09:15:00;;;;;;;3.63;2.15;;;18.80;93.90;;;;;;5029738;28;20029;-80
2021/08/24 09:17:41;;;;;;;3.72;1.83;;;18.80;93.90;;;;;;5031958;28;20025;-80
2021/08/24 09:20:20;;;;;;;4.95;1.98;;;18.80;93.80;;;;;;5030052;28;20401;-80
2021/08/24 09:22:46;;;;;;;3.30;1.80;;;18.80;93.80;;;;;;5030526;28;20067;-79
2021/08/24 09:25:34;;;;;;;5.10;2.30;;;18.90;93.80;;;;;;5030501;28;20046;-80
2021/08/24 09:28:15;;;;;;;4.75;2.72;;;19.00;93.70;;;;;;5030072;28;20369;-80
2021/08/24 09:30:43;;;;;;;4.43;2.20;;;19.10;93.50;;;;;;5030514;28;20113;-80
2021/08/24 09:33:09;;;;;;;4.07;2.53;;;19.20;93.40;;;;;;5029861;28;20049;-80
2021/08/24 09:35:45;;;;;;;4.68;2.50;;;19.30;93.30;;;;;;5030243;28;20447;-80
2021/08/24 09:38:26;;;;;;;5.22;2.65;;;19.40;93.10;;;;;;5029896;28;20112;-80
2021/08/24 09:40:55;;;;;;;7.07;3.10;;;19.50;93.00;;;;;;5029709;28;20497;-80
2021/08/24 09:43:37;;;;;;;4.85;2.85;;;19.50;93.00;;;;;;5033925;28;20029;-81
2021/08/24 09:46:25;;;;;;;3.97;2.50;;;19.50;92.90;;;;;;5033336;28;20033;-81
2021/08/24 09:48:53;;;;;;;5.35;2.67;;;19.60;92.90;;;;;;4976722;28;20034;-81
2021/08/24 09:51:38;;;;;;;4.43;2.50;;;19.70;92.80;;;;;;4993512;28;20022;-80
2021/08/24 09:54:08;;;;;;;3.80;2.30;;;19.90;92.50;;;;;;4992666;28;20046;-81
2021/08/24 09:56:49;;;;;;;4.57;2.75;;;20.10;92.40;;;;;;4993544;28;20518;-80
2021/08/24 09:59:41;;;;;;;4.45;2.63;;;20.10;92.20;;;;;;4993403;28;20041;-79
2021/08/24 10:02:29;;;;;;;6.25;2.85;;;20.20;92.00;;;;;;4992547;28;20490;-80
2021/08/24 10:04:55;;;;;;;4.90;3.03;;;20.30;91.80;;;;;;4992591;28;20026;-80
2021/08/24 10:07:37;;;;;;;3.88;2.30;;;20.30;91.80;;;;;;4992793;28;20034;-80
2021/08/24 10:10:07;;;;;;;4.78;2.88;;;20.50;91.70;;;;;;4992416;28;20026;-80
2021/08/24 10:12:33;;;;;;;5.45;2.72;;;20.60;91.50;;;;;;4992967;28;20038;-79
2021/08/24 10:15:29;;;;;;;4.47;2.33;;;20.60;91.40;;;;;;4992302;28;20165;-80
2021/08/24 10:18:08;;;;;;;5.15;2.58;;;20.70;91.00;;;;;;4992199;28;20371;-80
2021/08/24 10:20:56;;;;;;;4.20;2.00;;;20.60;91.00;;;;;;4992842;28;20030;-79
2021/08/24 10:23:26;;;;;;;4.32;2.30;;;20.60;91.10;;;;;;4992352;28;20466;-79
2021/08/24 10:25:59;;;;;;;4.55;2.42;;;20.60;91.10;;;;;;5018287;28;20116;-81
2021/08/24 10:28:29;;;;;;;4.60;2.20;;;20.60;90.80;;;;;;5017669;28;20116;-79
2021/08/24 10:30:58;;;;;;;3.75;1.95;;;20.70;90.90;;;;;;5037895;28;20024;-79
2021/08/24 10:33:39;;;;;;;3.45;2.03;;;20.70;90.70;;;;;;5034056;28;20079;-79
2021/08/24 10:36:15;;;;;;;4.40;1.98;;;20.80;90.40;;;;;;5032050;28;20057;-79
2021/08/24 10:38:53;;;;;;;3.83;2.00;;;20.90;90.30;;;;;;5033128;28;20033;-78
2021/08/24 10:41:39;;;;;;;4.10;1.80;;;21.00;90.10;;;;;;5033209;28;20021;-79
2021/08/24 10:44:22;;;;;;;3.83;1.85;;;21.00;89.70;;;;;;5032319;28;20026;-79
2021/08/24 10:47:29;;;;;;;5.55;2.55;;;21.00;89.50;;;;;;5033737;28;20014;-79
2021/08/24 10:49:57;;;;;;;4.43;1.90;;;21.10;89.40;;;;;;5032242;28;20465;-79
2021/08/24 10:53:00;;;;;;;5.40;1.77;;;21.10;89.00;;;;;;5032718;28;20028;-79
2021/08/24 10:55:34;;;;;;;3.30;1.60;;;21.20;88.40;;;;;;5032455;28;20036;-79
2021/08/24 10:58:18;;;;;;;3.15;1.58;;;21.10;88.00;;;;;;5031811;28;20032;-79
2021/08/24 11:00:53;;;;;;;3.30;1.58;;;21.10;87.50;;;;;;5032421;28;20516;-79
2021/08/24 11:04:04;;;;;;;2.97;1.25;;;21.10;87.90;;;;;;5032662;28;20021;-79
2021/08/24 11:06:42;;;;;;;4.93;1.80;;;21.10;87.90;;;;;;4975733;28;20031;-78
2021/08/24 11:09:44;;;;;;;2.90;1.30;;;21.10;87.40;;;;;;4991270;28;20041;-78
2021/08/24 11:12:16;;;;;;;4.40;1.55;;;21.20;86.90;;;;;;4990903;28;20379;-78
2021/08/24 11:15:22;;;;;;;2.50;1.42;;;21.30;86.50;;;;;;4991555;28;20058;-78
2021/08/24 11:18:35;;;;;;;3.78;1.50;;;21.30;86.10;;;;;;4953012;29;20050;-79
2021/08/24 11:21:06;;;;;;;2.40;1.40;;;21.30;85.40;;;;;;4910842;29;20039;-79
2021/08/24 11:23:47;;;;;;;3.20;1.50;;;21.30;85.20;;;;;;4952861;29;20183;-79
2021/08/24 11:26:32;;;;;;;3.03;1.58;;;21.40;84.80;;;;;;4952049;29;20027;-79
2021/08/24 11:29:00;;;;;;;3.30;1.50;;;21.40;84.30;;;;;;4952092;29;20023;-78
2021/08/24 11:31:40;;;;;;;2.67;1.20;;;21.40;84.30;;;;;;4952630;29;20039;-78
2021/08/24 11:34:09;;;;;;;2.42;1.27;;;21.50;84.00;;;;;;4951724;29;20145;-79
2021/08/24 11:36:59;;;;;;;2.83;1.30;;;21.50;83.50;;;;;;4936640;29;20047;-78
2021/08/24 11:39:36;;;;;;;3.25;1.50;;;21.50;82.90;;;;;;4929279;29;20320;-79
2021/08/24 11:42:04;;;;;;;2.33;1.30;;;21.60;82.60;;;;;;4951892;29;20098;-78
2021/08/24 11:44:32;;;;;;;1.55;1.00;;;21.60;82.70;;;;;;4990916;28;20039;-78
2021/08/24 11:47:12;;;;;;;2.40;1.20;;;21.70;82.60;;;;;;4990463;28;20375;-79
2021/08/24 11:49:52;;;;;;;3.42;1.50;;;21.80;81.90;;;;;;4991281;28;20022;-78
2021/08/24 11:52:38;;;;;;;4.23;1.57;;;21.90;80.90;;;;;;4995043;28;20375;-78
2021/08/24 11:55:10;;;;;;;2.78;1.67;;;22.00;81.00;;;;;;5030580;28;20025;-78
2021/08/24 11:57:40;;;;;;;3.22;1.38;;;22.10;80.40;;;;;;5026742;28;20028;-78
2021/08/24 12:00:08;;;;;;;1.33;1.00;;;22.20;79.30;;;;;;5030760;28;20476;-78
2021/08/24 12:02:37;;;;;;;2.03;1.15;;;22.30;78.80;;;;;;5032502;28;20025;-77
2021/08/24 12:05:04;;;;;;;2.33;1.30;;;22.30;78.20;;;;;;5030620;28;20038;-78
2021/08/24 12:07:34;;;;;;;2.38;1.30;;;22.40;77.90;;;;;;5032373;28;20028;-78
2021/08/24 12:10:22;;;;;;;3.00;1.50;;;22.30;77.30;;;;;;5032265;28;20036;-78
2021/08/24 12:13:04;;;;;;;3.17;1.60;;;22.40;76.40;;;;;;5031243;28;20109;-78
2021/08/24 12:15:46;;;;;;;1.20;0.70;;;22.50;75.60;;;;;;5031134;28;20057;-78
2021/08/24 12:18:18;;;;;;;1.92;1.17;;;22.50;75.60;;;;;;5031819;28;20358;-78
2021/08/24 12:20:47;;;;;;;2.97;1.23;;;22.50;75.50;;;;;;5031163;28;20085;-78
2021/08/24 12:23:29;;;;;;;1.77;1.20;;;22.50;75.30;;;;;;5031631;28;20017;-79
2021/08/24 12:25:55;;;;;;;2.72;1.33;;;22.40;75.80;;;;;;5047646;28;20369;-78
2021/08/24 12:28:22;;;;;;;2.53;1.27;;;22.40;75.80;;;;;;5031455;28;20022;-78
2021/08/24 12:31:23;;;;;;;3.40;1.25;;;22.50;75.40;;;;;;5030748;28;20100;-78
2021/08/24 12:33:49;;;;;;;2.65;1.60;;;22.60;75.30;;;;;;5018669;28;20038;-78
2021/08/24 12:36:23;;;;;;;2.53;1.42;;;22.60;75.40;;;;;;5046625;28;20048;-78
2021/08/24 12:38:58;;;;;;;2.05;1.27;;;22.60;74.50;;;;;;5031937;28;20028;-78
2021/08/24 12:41:35;;;;;;;3.10;1.42;;;22.70;73.70;;;;;;5030114;28;20029;-77
2021/08/24 12:44:13;;;;;;;1.77;1.05;;;22.70;73.70;;;;;;5029812;28;20022;-79
2021/08/24 12:46:45;;;;;;;2.55;1.23;;;22.70;73.40;;;;;;5032028;28;20022;-78
2021/08/24 12:49:14;;;;;;;3.17;1.60;;;22.80;72.90;;;;;;5031221;28;20092;-77
2021/08/24 12:51:50;;;;;;;3.60;1.70;;;22.80;72.70;;;;;;5030657;28;20022;-76
2021/08/24 12:54:19;;;;;;;2.10;1.40;;;22.90;72.70;;;;;;5031012;28;20033;-78
2021/08/24 12:56:48;;;;;;;3.00;1.63;;;22.90;72.20;;;;;;5032297;28;20107;-76
2021/08/24 12:59:49;;;;;;;3.33;1.73;;;22.90;71.90;;;;;;5031787;28;20033;-77
2021/08/24 13:02:32;;;;;;;2.40;1.27;;;22.80;70.80;;;;;;5031245;28;20017;-77
2021/08/24 13:05:14;;;;;;;3.13;1.85;;;22.80;71.00;;;;;;5031998;28;20021;-77
2021/08/24 13:07:48;;;;;;;3.63;1.73;;;22.90;71.10;;;;;;5030532;28;20018;-77
2021/08/24 13:10:32;;;;;;;3.35;1.40;;;23.00;70.80;;;;;;5029757;28;20071;-77
2021/08/24 13:12:59;;;;;;;2.95;1.33;;;23.20;70.80;;;;;;5030408;28;20457;-77